Time;durP1;ratioP1;P1;durP2;ratioP2;P2;SDS_P1;SDS_P2;PMS_P1;PMS_P2;Temp;Humidity;BMP_temperature;BMP_pressure;BME280_temperature;BME280_humidity;BME280_pressure;Samples;Min_cycle;Max_cycle;Signal;HPM_P1;HPM_P2
2022/08/07 00:01:44;;;;;;;4.95;3.62;;;;;;;12.93;63.11;102159.28;1735388;81;21110;-82
2022/08/07 00:04:11;;;;;;;7.30;3.98;;;;;;;12.93;63.21;102163.25;1752430;81;21539;-81
2022/08/07 00:06:38;;;;;;;7.42;5.03;;;;;;;12.93;63.31;102160.61;1678701;84;21087;-82
2022/08/07 00:09:05;;;;;;;9.50;5.28;;;;;;;12.92;63.36;102159.72;1676658;84;22367;-81
2022/08/07 00:11:32;;;;;;;5.35;3.80;;;;;;;12.93;63.48;102160.61;1664350;85;21084;-81
2022/08/07 00:13:59;;;;;;;7.95;3.45;;;;;;;12.92;63.48;102159.72;1633633;86;21193;-82
2022/08/07 00:16:26;;;;;;;5.97;3.02;;;;;;;12.92;63.54;102158.83;1700216;83;21107;-81
2022/08/07 00:18:53;;;;;;;5.87;2.95;;;;;;;12.90;63.60;102160.08;1679642;84;21660;-82
2022/08/07 00:21:20;;;;;;;5.75;3.12;;;;;;;12.89;63.63;102160.91;1680432;84;23061;-81
2022/08/07 00:23:47;;;;;;;4.67;3.27;;;;;;;12.87;63.72;102154.67;1679662;83;21067;-82
2022/08/07 00:26:14;;;;;;;5.03;3.85;;;;;;;12.88;63.87;102159.55;1679633;83;21082;-81
2022/08/07 00:28:42;;;;;;;7.22;3.25;;;;;;;12.87;63.92;102159.95;1680503;84;21079;-82
2022/08/07 00:31:09;;;;;;;6.42;3.05;;;;;;;12.85;64.00;102162.96;1680815;83;21142;-82
2022/08/07 00:33:36;;;;;;;3.95;2.75;;;;;;;12.86;64.22;102166.09;1648722;84;21762;-81
2022/08/07 00:36:04;;;;;;;5.90;3.00;;;;;;;12.86;64.21;102171.38;1652781;85;21428;-82
2022/08/07 00:38:52;;;;;;;5.67;3.17;;;;;;;12.87;64.31;102170.52;1648455;85;21569;-90
2022/08/07 00:41:26;;;;;;;6.20;2.58;;;;;;;12.87;64.38;102163.92;1681971;84;21039;-90
2022/08/07 00:43:59;;;;;;;4.28;2.77;;;;;;;12.88;64.55;102164.84;1681546;83;21039;-90
2022/08/07 00:46:26;;;;;;;6.83;3.30;;;;;;;12.87;64.56;102165.67;1663507;84;21906;-81
2022/08/07 00:48:52;;;;;;;5.08;3.35;;;;;;;12.83;64.59;102158.93;1651721;85;21478;-82
2022/08/07 00:51:19;;;;;;;4.92;3.12;;;;;;;12.81;64.69;102151.80;1680395;84;21086;-81
2022/08/07 00:53:46;;;;;;;5.00;3.22;;;;;;;12.79;64.77;102150.84;1647800;85;21387;-82
2022/08/07 00:56:14;;;;;;;5.25;3.50;;;;;;;12.76;64.85;102154.67;1647927;85;21098;-82
2022/08/07 00:58:42;;;;;;;7.03;3.02;;;;;;;12.74;64.98;102151.08;1648116;85;21679;-82
2022/08/07 01:01:09;;;;;;;4.87;2.90;;;;;;;12.74;65.06;102157.25;1674162;83;21577;-82
2022/08/07 01:03:36;;;;;;;5.00;2.95;;;;;;;12.73;65.14;102155.47;1647993;85;21304;-82
2022/08/07 01:06:05;;;;;;;3.35;2.62;;;;;;;12.71;65.22;102151.87;1648180;85;21547;-81
2022/08/07 01:08:41;;;;;;;11.08;3.50;;;;;;;12.71;65.37;102153.19;1681837;84;21580;-92
2022/08/07 01:11:20;;;;;;;7.17;3.33;;;;;;;12.71;65.45;102155.84;1681931;84;21754;-91
2022/08/07 01:14:07;;;;;;;4.70;3.50;;;;;;;12.71;65.56;102156.27;1654051;84;21087;-91
2022/08/07 01:16:45;;;;;;;5.53;3.33;;;;;;;12.70;65.69;102151.81;1667639;86;21132;-91
2022/08/07 01:19:13;;;;;;;5.50;3.22;;;;;;;12.70;65.81;102149.16;1667847;85;21122;-91
2022/08/07 01:21:50;;;;;;;6.87;3.10;;;;;;;12.71;65.91;102153.62;1667955;86;21596;-91
2022/08/07 01:24:43;;;;;;;7.00;3.20;;;;;;;12.72;65.98;102157.62;1683133;84;21760;-90
2022/08/07 01:27:11;;;;;;;11.93;3.42;;;;;;;12.74;66.11;102159.01;1696010;84;21047;-90
2022/08/07 01:29:43;;;;;;;4.87;2.92;;;;;;;12.68;66.11;102142.92;1675657;84;21143;-90
2022/08/07 01:32:11;;;;;;;5.90;3.08;;;;;;;12.77;66.22;102155.17;1695763;84;21037;-90
2022/08/07 01:35:16;;;;;;;5.00;3.02;;;;;;;12.77;66.24;102161.34;1678173;84;21613;-90
2022/08/07 01:37:43;;;;;;;6.67;3.60;;;;;;;12.76;66.28;102157.32;1666453;85;21814;-90
2022/08/07 01:40:10;;;;;;;8.10;2.87;;;;;;;12.77;66.34;102159.14;1666425;86;21437;-89
2022/08/07 01:43:41;;;;;;;5.03;3.08;;;;;;;12.75;66.41;102159.07;1666636;85;21121;-90
2022/08/07 01:47:05;;;;;;;4.83;3.08;;;;;;;12.76;66.49;102156.92;1666366;85;21115;-90
2022/08/07 01:49:32;;;;;;;5.45;3.10;;;;;;;12.75;66.57;102160.39;1666452;86;21049;-90
2022/08/07 01:53:04;;;;;;;6.47;3.40;;;;;;;12.74;66.66;102161.22;1666214;86;21834;-90
2022/08/07 01:55:45;;;;;;;8.68;4.35;;;;;;;12.74;66.71;102161.22;1666326;85;21062;-90
2022/08/07 01:58:28;;;;;;;13.55;3.58;;;;;;;12.75;66.86;102158.18;1650144;86;21058;-89
2022/08/07 02:01:10;;;;;;;5.47;3.65;;;;;;;12.73;66.87;102160.76;1666456;86;21082;-90
2022/08/07 02:03:41;;;;;;;5.92;3.27;;;;;;;12.75;66.86;102166.11;1675107;85;21040;-90
2022/08/07 02:06:15;;;;;;;4.55;3.17;;;;;;;12.76;66.94;102164.85;1680027;85;21776;-90
2022/08/07 02:09:56;;;;;;;6.00;3.58;;;;;;;12.76;66.98;102164.85;1676578;85;21072;-91
2022/08/07 02:12:23;;;;;;;5.78;3.20;;;;;;;12.76;67.05;102171.45;1680054;84;21125;-90
2022/08/07 02:15:39;;;;;;;8.10;2.85;;;;;;;12.80;67.06;102170.73;1693176;83;21097;-90
2022/08/07 02:22:01;;;;;;;8.75;3.50;;;;;;;12.81;67.18;102166.33;1708127;84;21777;-90
2022/08/07 02:28:31;;;;;;;11.57;3.77;;;;;;;12.76;67.21;102168.81;1707675;84;21026;-90
2022/08/07 02:31:37;;;;;;;4.08;2.77;;;;;;;12.74;67.37;102167.83;1707791;83;21109;-90
2022/08/07 02:34:15;;;;;;;3.62;2.92;;;;;;;12.72;67.37;102168.62;1707776;84;21595;-90
2022/08/07 02:40:29;;;;;;;5.17;3.08;;;;;;;12.68;67.60;102170.66;1708001;83;21050;-90
2022/08/07 02:44:01;;;;;;;4.95;3.30;;;;;;;12.68;67.71;102179.48;1707835;84;21013;-90
2022/08/07 02:46:34;;;;;;;7.60;3.25;;;;;;;12.67;67.79;102171.09;1708015;83;21016;-90
2022/08/07 02:49:10;;;;;;;6.90;3.50;;;;;;;12.66;67.90;102175.88;1686034;84;21042;-89
2022/08/07 02:51:37;;;;;;;5.45;3.12;;;;;;;12.67;67.94;102176.77;1707691;84;21789;-90
2022/08/07 02:54:04;;;;;;;6.70;3.37;;;;;;;12.68;68.14;102174.62;1707500;83;21046;-90
2022/08/07 02:56:55;;;;;;;5.28;3.42;;;;;;;12.68;68.29;102173.30;1685754;84;20979;-90
2022/08/07 02:59:25;;;;;;;9.73;4.30;;;;;;;12.70;68.33;102175.58;1685457;84;21034;-89
2022/08/07 03:01:54;;;;;;;7.62;5.15;;;;;;;12.70;68.45;102171.63;1707698;84;20982;-90
2022/08/07 03:07:56;;;;;;;11.45;3.83;;;;;;;12.73;68.55;102163.40;1707526;84;21010;-90
2022/08/07 03:10:38;;;;;;;6.97;3.47;;;;;;;12.77;68.64;102163.09;1708167;83;21023;-87
2022/08/07 03:13:06;;;;;;;8.50;3.27;;;;;;;12.80;68.63;102157.91;1687849;83;21036;-90
2022/08/07 03:16:30;;;;;;;4.12;2.87;;;;;;;12.83;68.69;102158.04;1714466;83;21018;-89
2022/08/07 03:19:06;;;;;;;4.83;2.85;;;;;;;12.85;68.76;102159.00;1724215;82;21947;-89
2022/08/07 03:21:42;;;;;;;6.45;3.25;;;;;;;12.89;68.77;102162.23;1736077;81;21015;-90
2022/08/07 03:24:09;;;;;;;5.05;3.20;;;;;;;12.93;68.81;102159.28;1736001;82;21064;-89
2022/08/07 03:27:12;;;;;;;7.95;3.10;;;;;;;12.99;68.88;102159.55;1736052;82;21620;-90
2022/08/07 03:30:04;;;;;;;5.45;2.85;;;;;;;13.03;68.88;102163.66;1736256;82;21031;-90
2022/08/07 03:32:38;;;;;;;4.90;2.83;;;;;;;13.10;68.88;102158.59;1715323;82;21758;-90
2022/08/07 03:35:33;;;;;;;5.10;2.80;;;;;;;13.18;68.98;102163.34;1735822;82;21106;-90
2022/08/07 03:38:02;;;;;;;6.80;2.70;;;;;;;13.29;68.97;102162.81;1685906;82;21072;-90
2022/08/07 03:41:09;;;;;;;5.83;2.72;;;;;;;13.43;68.95;102160.30;1734566;82;21063;-90
2022/08/07 03:43:37;;;;;;;7.03;3.67;;;;;;;13.62;69.00;102165.81;1741137;82;21027;-90
2022/08/07 03:46:05;;;;;;;8.23;3.02;;;;;;;14.00;69.05;102160.52;1740990;82;21796;-90
2022/08/07 03:48:44;;;;;;;6.25;2.60;;;;;;;14.51;69.02;102163.48;1705198;84;21111;-90
2022/08/07 03:51:20;;;;;;;5.83;2.70;;;;;;;15.32;69.30;102157.08;1705684;83;21204;-90
2022/08/07 03:53:53;;;;;;;4.65;2.50;;;;;;;16.73;68.95;102157.52;1741301;81;21043;-91
2022/08/07 03:59:37;;;;;;;5.15;3.08;;;;;;;19.30;65.55;102158.36;1746188;81;22524;-90
2022/08/07 04:02:05;;;;;;;6.35;2.62;;;;;;;20.81;63.21;102165.01;1756491;81;21036;-90
2022/08/07 04:04:59;;;;;;;4.08;2.70;;;;;;;21.83;61.50;102161.78;1756730;81;21052;-91
2022/08/07 04:07:54;;;;;;;5.47;2.17;;;;;;;22.90;60.07;102164.78;1756735;81;21561;-90
2022/08/07 04:10:24;;;;;;;;;;;;;;;24.13;58.33;102165.86;1684151;85;21537;-90
2022/08/07 04:12:51;;;;;;;3.15;1.90;;;;;;;25.40;55.95;102170.30;1699999;84;21816;-91
2022/08/07 04:20:02;;;;;;;5.15;2.08;;;;;;;25.56;52.30;102179.50;1693335;84;21112;-91
2022/08/07 04:23:00;;;;;;;5.08;2.33;;;;;;;25.76;51.56;102182.78;1674906;84;21072;-91
2022/08/07 04:25:26;;;;;;;3.77;1.77;;;;;;;26.12;49.65;102181.78;1710922;83;21110;-90
2022/08/07 04:28:06;;;;;;;3.02;1.77;;;;;;;25.28;48.67;102183.93;1739936;82;21695;-90
2022/08/07 04:34:16;;;;;;;4.28;2.27;;;;;;;24.49;48.83;102181.67;1681380;85;21059;-90
2022/08/07 04:36:51;;;;;;;5.35;1.90;;;;;;;23.78;48.46;102188.53;1693815;84;21081;-90
2022/08/07 04:39:28;;;;;;;4.40;1.80;;;;;;;23.54;48.47;102185.98;1694843;84;21066;-90
2022/08/07 04:42:02;;;;;;;3.27;1.67;;;;;;;23.42;49.20;102183.81;1696022;84;21778;-90
2022/08/07 04:45:05;;;;;;;6.15;1.75;;;;;;;25.69;50.12;102179.75;1734437;82;21091;-91
2022/08/07 04:47:51;;;;;;;2.87;1.40;;;;;;;27.27;47.23;102176.02;1712921;82;21300;-90
2022/08/07 04:50:27;;;;;;;4.03;1.62;;;;;;;28.65;45.69;102181.64;1727190;82;21048;-90
2022/08/07 04:53:06;;;;;;;3.77;1.60;;;;;;;30.24;44.95;102177.62;1734474;82;21173;-91
2022/08/07 04:56:08;;;;;;;3.65;1.60;;;;;;;32.00;43.62;102174.50;1734107;82;21884;-91
2022/08/07 05:02:43;;;;;;;3.87;1.50;;;;;;;33.47;40.33;102178.38;1728554;82;21047;-88
2022/08/07 05:05:27;;;;;;;1.90;1.02;;;;;;;34.55;37.63;102187.93;1686494;84;21080;-89
2022/08/07 05:08:25;;;;;;;2.70;1.20;;;;;;;34.94;36.75;102182.16;1683145;84;21086;-89
2022/08/07 05:10:59;;;;;;;2.65;1.50;;;;;;;35.78;36.00;102185.22;1676740;85;22754;-90
2022/08/07 05:13:29;;;;;;;4.17;1.30;;;;;;;36.89;35.00;102183.46;1674905;83;21107;-82
2022/08/07 05:16:29;;;;;;;3.92;1.40;;;;;;;38.05;33.75;102183.61;1648743;86;22181;-90
2022/08/07 05:18:59;;;;;;;7.42;1.70;;;;;;;39.10;32.64;102188.63;1667900;85;21617;-91
2022/08/07 05:21:29;;;;;;;2.37;1.32;;;;;;;39.57;30.57;102191.11;1669930;84;21079;-91
2022/08/07 05:24:10;;;;;;;2.55;1.17;;;;;;;39.62;29.97;102190.23;1683285;84;21755;-82
2022/08/07 05:26:37;;;;;;;3.55;1.17;;;;;;;39.47;28.81;102187.27;1662062;84;21099;-83
2022/08/07 05:29:06;;;;;;;2.33;1.10;;;;;;;37.50;28.23;102196.93;1686210;84;21534;-83
2022/08/07 05:31:37;;;;;;;3.87;1.05;;;;;;;36.90;28.97;102198.05;1673124;84;21076;-83
2022/08/07 05:34:06;;;;;;;2.02;1.22;;;;;;;37.43;29.03;102192.36;1687805;83;21099;-83
2022/08/07 05:36:33;;;;;;;3.40;1.35;;;;;;;38.04;28.36;102198.83;1671577;84;22755;-82
2022/08/07 05:38:59;;;;;;;4.05;1.37;;;;;;;37.90;27.65;102206.16;1716901;82;21032;-90
2022/08/07 05:41:26;;;;;;;3.70;1.62;;;;;;;36.39;27.53;102200.70;1728298;82;21090;-82
2022/08/07 05:43:54;;;;;;;3.70;1.30;;;;;;;34.56;27.80;102207.48;1716261;82;21127;-82
2022/08/07 05:46:21;;;;;;;3.42;1.37;;;;;;;32.42;28.32;102210.91;1724509;82;21577;-82
2022/08/07 05:48:51;;;;;;;4.70;1.65;;;;;;;30.46;29.48;102209.48;1713595;82;21184;-82
2022/08/07 05:51:18;;;;;;;3.80;1.42;;;;;;;28.68;30.76;102208.63;1719824;82;21055;-82
2022/08/07 05:53:45;;;;;;;2.87;1.27;;;;;;;27.21;32.07;102211.23;1720032;82;21738;-82
2022/08/07 05:56:13;;;;;;;2.62;1.22;;;;;;;26.00;33.37;102215.73;1669504;84;21735;-81
2022/08/07 05:58:40;;;;;;;4.03;1.75;;;;;;;25.08;34.56;102219.20;1670450;84;21065;-90
2022/08/07 06:01:10;;;;;;;3.77;1.45;;;;;;;24.27;35.71;102218.22;1658857;85;22542;-89
2022/08/07 06:03:38;;;;;;;3.90;1.30;;;;;;;23.71;36.84;102212.33;1695305;84;21366;-89
2022/08/07 06:06:11;;;;;;;5.62;1.52;;;;;;;23.14;37.67;102215.28;1679636;84;21057;-89
2022/08/07 06:08:40;;;;;;;4.65;1.45;;;;;;;22.72;38.64;102221.20;1666339;85;21152;-82
2022/08/07 06:11:12;;;;;;;2.50;1.55;;;;;;;22.18;39.42;102218.98;1671107;85;21131;-87
2022/08/07 06:13:39;;;;;;;5.00;2.20;;;;;;;21.79;40.29;102224.33;1661349;85;22577;-89
2022/08/07 06:16:07;;;;;;;3.83;2.47;;;;;;;21.41;40.90;102221.50;1695963;84;21048;-89
2022/08/07 06:18:34;;;;;;;3.33;2.77;;;;;;;21.05;41.77;102225.81;1705664;82;21044;-89
2022/08/07 06:21:07;;;;;;;3.50;2.52;;;;;;;20.72;42.44;102222.95;1713695;82;21075;-90
2022/08/07 06:23:34;;;;;;;5.75;1.65;;;;;;;20.50;43.04;102227.67;1712327;83;21010;-89
2022/08/07 06:26:13;;;;;;;7.47;3.00;;;;;;;20.26;43.58;102233.71;1716930;83;21736;-89
2022/08/07 06:28:55;;;;;;;2.95;2.00;;;;;;;20.11;44.09;102237.14;1722743;82;21035;-90
2022/08/07 06:31:24;;;;;;;;;;;;;;;19.97;44.59;102236.98;1721863;82;21656;-90
2022/08/07 06:33:51;;;;;;;3.50;1.80;;;;;;;19.86;45.33;102240.91;1733591;82;20488;-90
2022/08/07 06:36:26;;;;;;;6.30;2.37;;;;;;;19.81;45.55;102244.86;1690716;83;21043;-89
2022/08/07 06:38:59;;;;;;;6.30;2.42;;;;;;;19.73;45.86;102241.67;1725463;82;21800;-89
2022/08/07 06:41:41;;;;;;;6.42;2.85;;;;;;;19.66;46.29;102243.78;1711255;83;21082;-85
2022/08/07 06:44:10;;;;;;;4.62;3.15;;;;;;;19.67;46.55;102245.14;1728405;82;21029;-89
2022/08/07 06:46:37;;;;;;;3.83;1.75;;;;;;;19.62;46.76;102234.38;1712474;82;21048;-89
2022/08/07 06:49:11;;;;;;;5.12;1.87;;;;;;;19.66;47.44;102243.33;1683678;84;21044;-88
2022/08/07 06:51:38;;;;;;;4.33;2.40;;;;;;;19.57;47.42;102244.11;1703555;83;21796;-89
2022/08/07 06:54:05;;;;;;;3.98;1.90;;;;;;;19.47;47.55;102248.01;1699505;82;21095;-87
2022/08/07 06:56:42;;;;;;;7.05;1.70;;;;;;;19.45;47.77;102239.09;1711215;83;21679;-89
2022/08/07 06:59:20;;;;;;;3.98;1.85;;;;;;;19.45;48.04;102250.66;1719135;82;21596;-88
2022/08/07 07:01:47;;;;;;;3.12;1.45;;;;;;;19.48;48.00;102245.78;1724690;82;21059;-90
2022/08/07 07:04:15;;;;;;;3.80;2.65;;;;;;;19.52;48.04;102255.61;1730679;82;21914;-84
2022/08/07 07:06:43;;;;;;;3.10;1.35;;;;;;;19.47;48.03;102250.23;1679804;84;21079;-80
2022/08/07 07:09:30;;;;;;;3.08;1.30;;;;;;;19.40;48.27;102248.36;1686031;83;21059;-82
2022/08/07 07:12:08;;;;;;;3.80;1.12;;;;;;;19.35;48.46;102256.33;1682152;83;21612;-81
2022/08/07 07:15:01;;;;;;;7.58;1.35;;;;;;;19.30;48.51;102248.69;1672019;82;21062;-80
2022/08/07 07:17:33;;;;;;;4.15;2.05;;;;;;;19.28;48.75;102242.44;1667786;85;22498;-87
2022/08/07 07:20:19;;;;;;;3.90;1.20;;;;;;;19.34;49.12;102244.28;1676720;85;21094;-90
2022/08/07 07:23:01;;;;;;;4.85;1.22;;;;;;;19.38;49.10;102247.00;1685336;85;21015;-85
2022/08/07 07:25:28;;;;;;;13.45;2.95;;;;;;;19.53;49.35;102246.73;1700701;81;20992;-87
2022/08/07 07:28:25;;;;;;;2.75;1.40;;;;;;;19.72;48.84;102251.84;1742120;82;21047;-86
2022/08/07 07:31:00;;;;;;;3.17;1.30;;;;;;;19.83;48.42;102251.56;1737527;82;21762;-85
2022/08/07 07:33:27;;;;;;;5.20;0.98;;;;;;;20.00;48.04;102243.27;1722565;82;21118;-86
2022/08/07 07:36:09;;;;;;;3.80;1.57;;;;;;;20.07;47.37;102242.90;1716080;83;21035;-90
2022/08/07 07:38:39;;;;;;;5.03;1.20;;;;;;;20.07;47.34;102236.66;1711143;83;21100;-85
2022/08/07 07:41:08;;;;;;;3.70;0.98;;;;;;;20.18;47.27;102237.21;1644604;83;21071;-86
2022/08/07 07:43:43;;;;;;;5.25;1.12;;;;;;;20.23;47.30;102230.55;1676881;85;22782;-85
2022/08/07 07:46:10;;;;;;;1.85;1.00;;;;;;;20.33;47.23;102239.13;1725006;81;21070;-85
2022/08/07 07:48:38;;;;;;;2.30;0.90;;;;;;;20.35;46.59;102238.69;1729043;82;21016;-89
2022/08/07 07:51:06;;;;;;;3.30;1.20;;;;;;;20.31;46.51;102231.95;1680614;83;40757;-90
2022/08/07 07:53:36;;;;;;;1.90;0.85;;;;;;;20.29;46.29;102241.32;1713182;83;21122;-90
2022/08/07 07:56:05;;;;;;;2.80;0.90;;;;;;;20.23;46.25;102219.85;1713412;83;21786;-87
2022/08/07 07:58:35;;;;;;;3.55;1.05;;;;;;;20.36;46.21;102236.90;1713023;83;21032;-89
2022/08/07 08:01:02;;;;;;;2.67;0.95;;;;;;;20.41;46.03;102232.49;1713485;83;21078;-88
2022/08/07 08:03:29;;;;;;;3.30;1.15;;;;;;;20.38;46.05;102236.05;1729255;82;22369;-88
2022/08/07 08:06:12;;;;;;;4.20;1.00;;;;;;;20.49;46.07;102229.87;1719729;81;21081;-89
2022/08/07 08:08:40;;;;;;;2.55;0.85;;;;;;;20.53;45.98;102237.03;1717067;83;21716;-88
2022/08/07 08:11:08;;;;;;;3.60;1.00;;;;;;;20.61;45.97;102226.00;1734082;82;21035;-90
2022/08/07 08:13:41;;;;;;;2.75;1.00;;;;;;;20.73;45.62;102236.77;1740832;82;21047;-90
2022/08/07 08:16:08;;;;;;;1.40;0.80;;;;;;;20.76;45.24;102230.11;1710756;82;21111;-89
2022/08/07 08:18:34;;;;;;;2.17;0.82;;;;;;;20.77;44.65;102197.55;1705039;82;21148;-82
2022/08/07 08:21:01;;;;;;;4.30;1.27;;;;;;;20.77;44.65;102197.55;1733938;82;23045;-82
2022/08/07 08:29:02;;;;;;;2.52;0.88;;;;;;;21.31;44.07;102229.95;1722009;82;21067;-81
2022/08/07 08:31:34;;;;;;;2.90;0.82;;;;;;;21.58;43.86;102228.28;1729139;82;21426;-81
2022/08/07 08:34:03;;;;;;;1.77;0.82;;;;;;;21.80;43.75;102223.88;1664030;85;22439;-81
2022/08/07 08:36:31;;;;;;;4.00;1.20;;;;;;;21.80;43.75;102223.88;1724545;82;21070;-81
2022/08/07 08:39:00;;;;;;;3.52;1.92;;;;;;;21.81;43.07;102216.27;1682359;83;21102;-81
2022/08/07 08:41:52;;;;;;;3.50;1.55;;;;;;;21.88;42.93;102235.03;1727435;82;21127;-81
2022/08/07 08:44:33;;;;;;;2.22;1.10;;;;;;;21.65;42.96;102228.75;1717486;82;21062;-81
2022/08/07 08:47:26;;;;;;;4.78;0.95;;;;;;;21.65;42.96;102228.75;1726893;82;22548;-81
2022/08/07 08:50:16;;;;;;;3.02;2.02;;;;;;;21.74;43.13;102236.81;1733310;82;21450;-82
2022/08/07 08:52:48;;;;;;;6.60;1.15;;;;;;;21.97;43.08;102235.51;1690015;84;21158;-81
2022/08/07 08:55:34;;;;;;;1.87;0.60;;;;;;;22.25;42.75;102232.44;1722960;81;21086;-81
2022/08/07 08:58:34;;;;;;;2.95;0.98;;;;;;;22.43;42.38;102228.86;1704738;83;21651;-81
2022/08/07 09:01:32;;;;;;;1.55;1.00;;;;;;;22.61;42.26;102226.59;1688028;83;21728;-89
2022/08/07 09:16:14;;;;;;;7.17;1.77;;;;;;;22.89;41.57;102218.02;1635550;86;21142;-89
2022/08/07 09:19:18;;;;;;;3.98;0.98;;;;;;;23.04;41.31;102223.83;1621866;87;21766;-89
2022/08/07 09:22:30;;;;;;;5.10;1.00;;;;;;;23.06;41.11;102222.03;1622180;87;21925;-89
2022/08/07 09:25:26;;;;;;;4.33;1.50;;;;;;;23.16;40.98;102225.61;1621426;88;21114;-89
2022/08/07 09:28:38;;;;;;;2.35;1.02;;;;;;;23.31;40.80;102219.24;1621889;87;21275;-89
2022/08/07 09:31:36;;;;;;;4.40;1.90;;;;;;;23.34;40.30;102221.92;1621267;88;21294;-89
2022/08/07 09:34:37;;;;;;;2.17;1.40;;;;;;;23.26;40.05;102218.39;1629518;86;21860;-89
2022/08/07 09:37:32;;;;;;;2.75;1.00;;;;;;;23.36;39.88;102221.92;1616984;88;21182;-89
2022/08/07 09:40:20;;;;;;;1.82;1.00;;;;;;;23.71;39.95;102224.42;1616554;84;21135;-88
2022/08/07 09:42:55;;;;;;;2.20;1.42;;;;;;;23.86;39.31;102218.09;1705771;83;21536;-89
2022/08/07 09:45:45;;;;;;;2.62;1.10;;;;;;;23.91;39.28;102217.58;1704883;84;21035;-89
2022/08/07 09:48:50;;;;;;;3.15;1.45;;;;;;;23.99;39.18;102217.55;1704564;83;21773;-89
2022/08/07 09:51:33;;;;;;;4.62;1.20;;;;;;;24.07;39.02;102210.31;1663543;85;21036;-89
2022/08/07 09:54:44;;;;;;;3.75;1.37;;;;;;;24.13;38.68;102216.97;1671701;85;21064;-89
2022/08/07 09:57:20;;;;;;;4.37;1.20;;;;;;;24.06;38.51;102209.42;1698038;84;21074;-88
2022/08/07 10:00:12;;;;;;;1.80;0.90;;;;;;;24.13;38.54;102213.40;1707432;83;21042;-89
2022/08/07 10:03:01;;;;;;;1.55;0.75;;;;;;;24.14;38.30;102203.06;1705721;83;21818;-89
2022/08/07 10:06:30;;;;;;;3.10;0.90;;;;;;;24.24;38.17;102195.37;1706698;83;21085;-90
2022/08/07 10:09:37;;;;;;;3.20;0.70;;;;;;;24.33;37.91;102197.09;1706394;84;21061;-90
2022/08/07 10:16:10;;;;;;;2.42;1.02;;;;;;;24.45;37.19;102197.84;1722929;82;21126;-90
2022/08/07 10:18:54;;;;;;;3.02;2.10;;;;;;;24.16;37.36;102191.41;1741089;82;23280;-89
2022/08/07 10:22:00;;;;;;;4.53;1.75;;;;;;;24.39;37.27;102192.98;1728626;82;21075;-84
2022/08/07 10:25:14;;;;;;;2.15;0.60;;;;;;;24.31;37.12;102190.84;1727589;82;21642;-81
2022/08/07 10:27:58;;;;;;;4.67;1.65;;;;;;;24.04;37.35;102172.23;1723607;82;21162;-82
2022/08/07 10:35:10;;;;;;;6.25;1.10;;;;;;;24.40;37.68;102183.98;1711616;83;21798;-89
2022/08/07 10:37:54;;;;;;;5.78;1.90;;;;;;;24.57;37.28;102179.38;1711498;83;21086;-89
2022/08/07 10:40:53;;;;;;;3.60;1.75;;;;;;;24.67;37.20;102175.25;1710741;83;21063;-89
2022/08/07 10:43:30;;;;;;;4.47;1.30;;;;;;;24.80;37.23;102176.42;1710177;83;21064;-84
2022/08/07 10:46:08;;;;;;;2.70;1.27;;;;;;;24.84;37.10;102182.67;1720767;82;21083;-89
2022/08/07 10:49:12;;;;;;;2.00;1.00;;;;;;;24.84;36.80;102184.02;1740972;82;21987;-90
2022/08/07 10:52:40;;;;;;;3.72;1.42;;;;;;;24.82;37.04;102182.69;1712025;82;21059;-90
2022/08/07 10:55:19;;;;;;;1.85;1.10;;;;;;;24.93;36.61;102185.25;1735156;82;21035;-90
2022/08/07 10:58:43;;;;;;;3.40;1.22;;;;;;;24.87;36.53;102181.30;1718782;82;21044;-90
2022/08/07 11:01:18;;;;;;;2.12;0.98;;;;;;;24.93;36.69;102175.83;1737768;82;21032;-90
2022/08/07 11:04:32;;;;;;;3.90;1.12;;;;;;;25.17;37.02;102175.06;1710267;83;22426;-90
2022/08/07 11:07:29;;;;;;;2.40;1.42;;;;;;;25.16;36.14;102176.88;1701043;84;21047;-89
2022/08/07 11:14:02;;;;;;;2.70;1.20;;;;;;;24.88;36.34;102169.59;1696698;84;21045;-89
2022/08/07 11:16:44;;;;;;;6.47;1.57;;;;;;;24.43;37.51;102182.63;1695118;84;21141;-81
2022/08/07 11:19:24;;;;;;;7.70;1.72;;;;;;;23.93;38.50;102171.43;1692685;84;21866;-80
2022/08/07 11:22:11;;;;;;;8.40;1.10;;;;;;;23.64;39.03;102171.59;1666106;84;21149;-81
2022/08/07 11:25:19;;;;;;;6.05;1.32;;;;;;;23.34;39.39;102169.99;1675377;83;21039;-81
2022/08/07 11:28:09;;;;;;;2.75;1.25;;;;;;;22.98;40.02;102178.64;1687678;83;21096;-81
2022/08/07 11:31:04;;;;;;;4.53;1.50;;;;;;;22.71;40.46;102176.03;1734844;81;21130;-81
2022/08/07 11:33:42;;;;;;;3.10;1.20;;;;;;;22.45;40.66;102184.59;1748398;81;21754;-81
2022/08/07 11:36:35;;;;;;;5.10;1.20;;;;;;;22.22;41.41;102184.56;1708345;83;21751;-81
2022/08/07 11:39:55;;;;;;;3.55;1.30;;;;;;;22.23;41.57;102189.94;1705878;82;21585;-81
2022/08/07 11:43:13;;;;;;;3.10;1.07;;;;;;;22.19;41.78;102189.49;1751365;81;21184;-81
2022/08/07 11:46:15;;;;;;;4.17;0.88;;;;;;;22.37;42.19;102183.69;1741265;81;21094;-81
2022/08/07 11:49:18;;;;;;;2.85;1.17;;;;;;;22.54;42.16;102185.01;1718059;81;21718;-81
2022/08/07 11:52:28;;;;;;;4.67;1.20;;;;;;;22.58;42.46;102180.08;1709248;82;21082;-81
2022/08/07 11:55:19;;;;;;;5.62;1.00;;;;;;;22.56;42.39;102182.79;1708614;82;21086;-81
2022/08/07 11:58:12;;;;;;;4.50;1.00;;;;;;;22.57;42.49;102175.16;1709115;82;21187;-82
2022/08/07 12:01:18;;;;;;;3.47;1.22;;;;;;;22.54;42.38;102183.20;1745903;81;21642;-81
2022/08/07 12:04:31;;;;;;;3.35;1.42;;;;;;;22.35;42.55;102180.13;1743642;81;21764;-81
2022/08/07 12:07:27;;;;;;;4.78;1.20;;;;;;;22.29;42.46;102172.98;1726765;82;21175;-89
2022/08/07 12:10:25;;;;;;;3.22;1.05;;;;;;;22.36;42.61;102174.77;1737355;81;21162;-89
2022/08/07 12:13:13;;;;;;;2.87;1.10;;;;;;;22.31;42.58;102169.84;1743049;81;21127;-81
2022/08/07 12:15:56;;;;;;;11.38;1.60;;;;;;;22.29;42.59;102167.16;1657717;84;21091;-81
2022/08/07 12:18:29;;;;;;;;;;;;;;;22.31;42.66;102165.36;1689381;83;21951;-81
2022/08/07 12:21:01;;;;;;;3.45;1.17;;;;;;;22.37;42.97;102164.45;1687656;83;20609;-81
2022/08/07 12:23:45;;;;;;;6.13;1.03;;;;;;;22.27;42.96;102160.02;1651329;85;21082;-83
2022/08/07 12:26:48;;;;;;;4.70;1.27;;;;;;;22.25;43.00;102154.64;1675993;84;21852;-81
2022/08/07 12:29:37;;;;;;;1.85;1.10;;;;;;;22.12;43.06;102146.13;1658254;85;21090;-82
2022/08/07 12:32:38;;;;;;;4.33;1.82;;;;;;;22.20;43.31;102141.65;1672883;84;21789;-81
2022/08/07 12:35:08;;;;;;;3.08;1.12;;;;;;;22.28;43.21;102143.01;1651800;84;21063;-82
2022/08/07 12:37:35;;;;;;;2.52;1.02;;;;;;;22.21;43.10;102146.13;1676825;85;21209;-82
2022/08/07 12:40:02;;;;;;;3.45;1.30;;;;;;;22.04;43.32;102142.13;1684458;83;21172;-81
2022/08/07 12:42:29;;;;;;;5.90;1.40;;;;;;;22.05;43.58;102142.55;1648555;85;21759;-81
2022/08/07 12:45:03;;;;;;;5.67;1.87;;;;;;;22.16;43.69;102140.33;1666285;85;21984;-82
2022/08/07 12:47:48;;;;;;;3.72;1.45;;;;;;;22.24;43.62;102146.14;1680117;84;21621;-82
2022/08/07 12:51:01;;;;;;;5.95;1.62;;;;;;;22.24;43.42;102140.77;1672872;84;21580;-82
2022/08/07 12:53:36;;;;;;;5.35;1.30;;;;;;;22.26;43.50;102143.04;1722132;82;21298;-81
2022/08/07 12:56:26;;;;;;;2.58;0.88;;;;;;;22.34;43.41;102145.70;1695220;84;21131;-81
2022/08/07 12:58:53;;;;;;;3.08;1.17;;;;;;;22.40;43.58;102141.66;1658071;84;21823;-81
2022/08/07 13:01:52;;;;;;;5.35;2.62;;;;;;;22.48;43.27;102137.62;1675560;84;21103;-81
2022/08/07 13:05:03;;;;;;;3.47;1.05;;;;;;;22.46;43.18;102138.95;1679909;84;21084;-81
2022/08/07 13:07:47;;;;;;;5.65;1.70;;;;;;;22.40;43.06;102141.66;1690767;84;21174;-90
2022/08/07 13:10:41;;;;;;;4.28;2.12;;;;;;;22.49;43.16;102148.81;1686189;84;21079;-89
2022/08/07 13:13:45;;;;;;;5.65;1.30;;;;;;;22.40;43.42;102139.44;1678112;85;22576;-89
2022/08/07 13:16:48;;;;;;;9.18;1.25;;;;;;;22.43;43.38;102143.44;1704458;83;21063;-89
2022/08/07 13:20:05;;;;;;;3.10;1.00;;;;;;;22.40;43.60;102136.30;1695521;83;21083;-89
2022/08/07 13:22:59;;;;;;;7.47;1.30;;;;;;;22.41;43.63;102131.81;1693368;83;21875;-89
2022/08/07 13:25:37;;;;;;;4.72;1.75;;;;;;;22.45;43.76;102130.94;1691897;84;21082;-90
2022/08/07 13:28:08;;;;;;;3.80;1.02;;;;;;;22.49;43.61;102125.55;1649012;86;22525;-91
2022/08/07 13:30:35;;;;;;;5.50;1.40;;;;;;;22.43;43.65;102129.59;1647637;86;21665;-91
2022/08/07 13:33:46;;;;;;;4.08;1.10;;;;;;;22.31;43.84;102135.85;1672898;85;21051;-91